sensor_id;sensor_type;location;lat;lon;timestamp;pressure;altitude;pressure_sealevel;temperature;humidity
25759;BME280;13604;52.496;13.456;2022-10-17T00:00:19;101926.09;;;12.10;100.00
25759;BME280;13604;52.496;13.456;2022-10-17T00:02:44;101929.47;;;12.12;100.00
25759;BME280;13604;52.496;13.456;2022-10-17T00:05:09;101924.25;;;12.12;100.00
25759;BME280;13604;52.496;13.456;2022-10-17T00:07:36;101914.59;;;12.14;100.00
25759;BME280;13604;52.496;13.456;2022-10-17T00:10:03;101926.56;;;12.18;100.00
25759;BME280;13604;52.496;13.456;2022-10-17T00:12:28;101918.97;;;12.13;100.00
25759;BME280;13604;52.496;13.456;2022-10-17T00:14:54;101931.09;;;12.14;100.00
25759;BME280;13604;52.496;13.456;2022-10-17T00:17:19;101928.31;;;12.17;100.00
25759;BME280;13604;52.496;13.456;2022-10-17T00:19:44;101924.13;;;12.15;100.00
25759;BME280;13604;52.496;13.456;2022-10-17T00:22:10;101922.19;;;12.18;100.00
25759;BME280;13604;52.496;13.456;2022-10-17T00:24:36;101909.44;;;12.12;100.00
25759;BME280;13604;52.496;13.456;2022-10-17T00:27:01;101910.34;;;12.11;100.00
25759;BME280;13604;52.496;13.456;2022-10-17T00:29:26;101901.03;;;12.06;100.00
25759;BME280;13604;52.496;13.456;2022-10-17T00:31:56;101916.94;;;12.01;100.00
25759;BME280;13604;52.496;13.456;2022-10-17T00:34:22;101923.16;;;11.98;100.00
25759;BME280;13604;52.496;13.456;2022-10-17T00:36:47;101918.31;;;11.91;100.00
25759;BME280;13604;52.496;13.456;2022-10-17T00:39:13;101917.53;;;11.89;100.00
25759;BME280;13604;52.496;13.456;2022-10-17T00:41:38;101912.53;;;11.84;100.00
25759;BME280;13604;52.496;13.456;2022-10-17T00:44:53;101910.75;;;11.85;100.00
25759;BME280;13604;52.496;13.456;2022-10-17T00:46:51;101914.22;;;11.85;100.00
25759;BME280;13604;52.496;13.456;2022-10-17T00:49:16;101909.72;;;11.89;100.00
25759;BME280;13604;52.496;13.456;2022-10-17T00:51:45;101913.09;;;11.91;100.00
25759;BME280;13604;52.496;13.456;2022-10-17T00:54:13;101915.63;;;11.92;100.00
25759;BME280;13604;52.496;13.456;2022-10-17T00:56:38;101918.16;;;11.94;100.00
25759;BME280;13604;52.496;13.456;2022-10-17T00:59:06;101924.00;;;11.99;100.00
25759;BME280;13604;52.496;13.456;2022-10-17T01:01:33;101922.94;;;12.03;100.00
25759;BME280;13604;52.496;13.456;2022-10-17T01:03:59;101928.91;;;12.05;100.00
25759;BME280;13604;52.496;13.456;2022-10-17T01:06:25;101931.53;;;12.05;100.00
25759;BME280;13604;52.496;13.456;2022-10-17T01:08:50;101934.13;;;12.05;100.00
25759;BME280;13604;52.496;13.456;2022-10-17T01:13:55;101923.50;;;12.10;100.00
25759;BME280;13604;52.496;13.456;2022-10-17T01:16:35;101909.66;;;12.08;100.00
25759;BME280;13604;52.496;13.456;2022-10-17T01:19:34;101911.81;;;11.99;100.00
25759;BME280;13604;52.496;13.456;2022-10-17T01:22:19;101913.69;;;11.96;100.00
25759;BME280;13604;52.496;13.456;2022-10-17T01:33:27;101900.56;;;11.80;100.00
25759;BME280;13604;52.496;13.456;2022-10-17T01:36:09;101895.47;;;11.77;100.00
25759;BME280;13604;52.496;13.456;2022-10-17T01:38:43;101887.75;;;11.74;100.00
25759;BME280;13604;52.496;13.456;2022-10-17T01:46:24;101895.03;;;11.67;100.00
25759;BME280;13604;52.496;13.456;2022-10-17T01:48:51;101888.25;;;11.63;100.00
25759;BME280;13604;52.496;13.456;2022-10-17T01:51:22;101883.19;;;11.60;100.00
25759;BME280;13604;52.496;13.456;2022-10-17T01:53:53;101886.56;;;11.62;100.00
25759;BME280;13604;52.496;13.456;2022-10-17T01:56:23;101884.13;;;11.59;100.00
25759;BME280;13604;52.496;13.456;2022-10-17T01:58:59;101887.72;;;11.57;100.00
25759;BME280;13604;52.496;13.456;2022-10-17T02:01:27;101894.91;;;11.52;100.00
25759;BME280;13604;52.496;13.456;2022-10-17T02:03:55;101890.59;;;11.51;100.00
25759;BME280;13604;52.496;13.456;2022-10-17T02:06:22;101875.19;;;11.46;100.00
25759;BME280;13604;52.496;13.456;2022-10-17T02:08:49;101888.16;;;11.48;100.00
25759;BME280;13604;52.496;13.456;2022-10-17T02:11:23;101892.41;;;11.49;100.00
25759;BME280;13604;52.496;13.456;2022-10-17T02:13:53;101891.44;;;11.51;100.00
25759;BME280;13604;52.496;13.456;2022-10-17T02:22:14;101886.72;;;11.41;100.00
25759;BME280;13604;52.496;13.456;2022-10-17T02:24:48;101886.53;;;11.45;100.00
25759;BME280;13604;52.496;13.456;2022-10-17T02:27:22;101896.88;;;11.47;100.00
25759;BME280;13604;52.496;13.456;2022-10-17T02:29:57;101891.44;;;11.51;100.00
25759;BME280;13604;52.496;13.456;2022-10-17T02:32:33;101883.47;;;11.54;100.00
25759;BME280;13604;52.496;13.456;2022-10-17T02:35:06;101879.19;;;11.53;100.00
25759;BME280;13604;52.496;13.456;2022-10-17T02:37:33;101879.19;;;11.53;100.00
25759;BME280;13604;52.496;13.456;2022-10-17T02:40:00;101875.72;;;11.53;100.00
25759;BME280;13604;52.496;13.456;2022-10-17T02:42:26;101874.50;;;11.60;100.00
25759;BME280;13604;52.496;13.456;2022-10-17T02:44:53;101876.19;;;11.61;100.00
25759;BME280;13604;52.496;13.456;2022-10-17T02:47:42;101872.91;;;11.57;100.00
25759;BME280;13604;52.496;13.456;2022-10-17T02:50:10;101873.13;;;11.53;100.00
25759;BME280;13604;52.496;13.456;2022-10-17T02:52:41;101875.59;;;11.56;100.00
25759;BME280;13604;52.496;13.456;2022-10-17T02:55:15;101867.81;;;11.54;100.00
25759;BME280;13604;52.496;13.456;2022-10-17T02:57:45;101874.75;;;11.55;100.00
25759;BME280;13604;52.496;13.456;2022-10-17T03:00:14;101880.03;;;11.54;100.00
25759;BME280;13604;52.496;13.456;2022-10-17T03:02:43;101877.47;;;11.52;100.00
25759;BME280;13604;52.496;13.456;2022-10-17T03:05:12;101873.25;;;11.50;100.00
25759;BME280;13604;52.496;13.456;2022-10-17T03:07:37;101872.63;;;11.45;100.00
25759;BME280;13604;52.496;13.456;2022-10-17T03:10:03;101870.88;;;11.45;100.00
25759;BME280;13604;52.496;13.456;2022-10-17T03:12:28;101873.34;;;11.48;100.00
25759;BME280;13604;52.496;13.456;2022-10-17T03:14:54;101868.13;;;11.48;100.00
25759;BME280;13604;52.496;13.456;2022-10-17T03:17:19;101865.34;;;11.51;100.00
25759;BME280;13604;52.496;13.456;2022-10-17T03:19:44;101875.72;;;11.53;100.00
25759;BME280;13604;52.496;13.456;2022-10-17T03:22:09;101874.66;;;11.57;100.00
25759;BME280;13604;52.496;13.456;2022-10-17T03:24:35;101878.81;;;11.61;100.00
25759;BME280;13604;52.496;13.456;2022-10-17T03:27:00;101884.66;;;11.66;100.00
25759;BME280;13604;52.496;13.456;2022-10-17T03:29:26;101875.00;;;11.68;100.00
25759;BME280;13604;52.496;13.456;2022-10-17T03:31:51;101872.16;;;11.73;100.00
25759;BME280;13604;52.496;13.456;2022-10-17T03:34:16;101861.72;;;11.73;100.00
25759;BME280;13604;52.496;13.456;2022-10-17T03:36:43;101863.41;;;11.74;100.00
25759;BME280;13604;52.496;13.456;2022-10-17T03:39:08;101855.41;;;11.78;100.00
25759;BME280;13604;52.496;13.456;2022-10-17T03:41:33;101864.88;;;11.81;100.00
25759;BME280;13604;52.496;13.456;2022-10-17T03:43:59;101867.63;;;11.78;100.00
25759;BME280;13604;52.496;13.456;2022-10-17T03:46:24;101865.72;;;11.81;100.00
25759;BME280;13604;52.496;13.456;2022-10-17T03:48:50;101864.03;;;11.80;100.00
25759;BME280;13604;52.496;13.456;2022-10-17T03:51:15;101869.44;;;11.76;100.00
25759;BME280;13604;52.496;13.456;2022-10-17T03:53:40;101863.59;;;11.71;100.00
25759;BME280;13604;52.496;13.456;2022-10-17T03:56:13;101868.16;;;11.65;100.00
25759;BME280;13604;52.496;13.456;2022-10-17T03:58:39;101857.94;;;11.61;100.00
25759;BME280;13604;52.496;13.456;2022-10-17T04:01:09;101862.16;;;11.63;100.00
25759;BME280;13604;52.496;13.456;2022-10-17T04:03:35;101852.03;;;11.57;100.00
25759;BME280;13604;52.496;13.456;2022-10-17T04:06:01;101854.59;;;11.59;100.00
25759;BME280;13604;52.496;13.456;2022-10-17T04:08:27;101854.47;;;11.60;100.00
25759;BME280;13604;52.496;13.456;2022-10-17T04:10:57;101853.72;;;11.58;100.00
25759;BME280;13604;52.496;13.456;2022-10-17T04:13:23;101856.41;;;11.57;100.00
25759;BME280;13604;52.496;13.456;2022-10-17T04:16:04;101846.88;;;11.56;100.00
25759;BME280;13604;52.496;13.456;2022-10-17T04:18:30;101845.06;;;11.58;100.00
25759;BME280;13604;52.496;13.456;2022-10-17T04:20:55;101846.88;;;11.56;100.00
25759;BME280;13604;52.496;13.456;2022-10-17T04:23:21;101845.81;;;11.60;100.00
25759;BME280;13604;52.496;13.456;2022-10-17T04:25:47;101848.41;;;11.60;100.00
25759;BME280;13604;52.496;13.456;2022-10-17T04:28:12;101848.41;;;11.60;100.00
25759;BME280;13604;52.496;13.456;2022-10-17T04:30:38;101848.41;;;11.60;100.00
25759;BME280;13604;52.496;13.456;2022-10-17T04:33:04;101841.44;;;11.60;100.00
25759;BME280;13604;52.496;13.456;2022-10-17T04:35:29;101843.28;;;11.58;100.00
25759;BME280;13604;52.496;13.456;2022-10-17T04:37:54;101842.38;;;11.59;100.00
25759;BME280;13604;52.496;13.456;2022-10-17T04:40:20;101840.03;;;11.53;100.00
25759;BME280;13604;52.496;13.456;2022-10-17T04:42:45;101840.75;;;11.57;100.00
25759;BME280;13604;52.496;13.456;2022-10-17T04:45:11;101842.28;;;11.61;100.00
25759;BME280;13604;52.496;13.456;2022-10-17T04:47:36;101845.13;;;11.56;100.00
25759;BME280;13604;52.496;13.456;2022-10-17T04:50:03;101843.44;;;11.55;100.00
25759;BME280;13604;52.496;13.456;2022-10-17T04:52:28;101849.56;;;11.54;100.00
25759;BME280;13604;52.496;13.456;2022-10-17T04:54:53;101844.34;;;11.54;100.00
25759;BME280;13604;52.496;13.456;2022-10-17T04:57:19;101848.72;;;11.54;100.00
25759;BME280;13604;52.496;13.456;2022-10-17T04:59:44;101846.03;;;11.55;100.00
25759;BME280;13604;52.496;13.456;2022-10-17T05:02:10;101849.69;;;11.51;100.00
25759;BME280;13604;52.496;13.456;2022-10-17T05:04:35;101844.72;;;11.47;100.00
25759;BME280;13604;52.496;13.456;2022-10-17T05:07:00;101850.56;;;11.52;100.00
25759;BME280;13604;52.496;13.456;2022-10-17T05:09:26;101849.69;;;11.51;100.00
25759;BME280;13604;52.496;13.456;2022-10-17T05:11:51;101841.88;;;11.51;100.00
25759;BME280;13604;52.496;13.456;2022-10-17T05:14:16;101851.47;;;11.51;100.00
25759;BME280;13604;52.496;13.456;2022-10-17T05:16:42;101851.41;;;11.52;100.00
25759;BME280;13604;52.496;13.456;2022-10-17T05:19:07;101838.66;;;11.46;100.00
25759;BME280;13604;52.496;13.456;2022-10-17T05:21:32;101846.41;;;11.48;100.00
25759;BME280;13604;52.496;13.456;2022-10-17T05:23:58;101853.22;;;11.50;100.00
25759;BME280;13604;52.496;13.456;2022-10-17T05:26:24;101854.84;;;11.53;100.00
25759;BME280;13604;52.496;13.456;2022-10-17T05:28:49;101854.00;;;11.52;100.00
25759;BME280;13604;52.496;13.456;2022-10-17T05:31:16;101855.00;;;11.50;100.00
25759;BME280;13604;52.496;13.456;2022-10-17T05:33:42;101853.41;;;11.47;100.00
25759;BME280;13604;52.496;13.456;2022-10-17T05:36:07;101850.00;;;11.45;100.00
25759;BME280;13604;52.496;13.456;2022-10-17T05:38:33;101854.06;;;11.51;100.00
25759;BME280;13604;52.496;13.456;2022-10-17T05:40:59;101854.00;;;11.52;100.00
25759;BME280;13604;52.496;13.456;2022-10-17T05:43:25;101850.56;;;11.52;100.00
25759;BME280;13604;52.496;13.456;2022-10-17T05:45:51;101855.69;;;11.53;100.00
25759;BME280;13604;52.496;13.456;2022-10-17T05:48:16;101850.22;;;11.59;100.00
25759;BME280;13604;52.496;13.456;2022-10-17T05:50:42;101859.41;;;11.66;100.00
25759;BME280;13604;52.496;13.456;2022-10-17T05:53:08;101854.19;;;11.66;100.00
25759;BME280;13604;52.496;13.456;2022-10-17T05:55:33;101858.19;;;11.74;100.00
25759;BME280;13604;52.496;13.456;2022-10-17T05:57:59;101864.75;;;11.82;100.00
25759;BME280;13604;52.496;13.456;2022-10-17T06:00:25;101859.53;;;11.82;100.00
25759;BME280;13604;52.496;13.456;2022-10-17T06:02:50;101872.25;;;11.90;100.00
25759;BME280;13604;52.496;13.456;2022-10-17T06:05:16;101863.63;;;11.88;100.00
25759;BME280;13604;52.496;13.456;2022-10-17T06:07:41;101858.88;;;11.96;100.00
25759;BME280;13604;52.496;13.456;2022-10-17T06:10:07;101874.00;;;12.07;100.00
25759;BME280;13604;52.496;13.456;2022-10-17T06:12:32;101877.19;;;12.13;100.00
25759;BME280;13604;52.496;13.456;2022-10-17T06:14:57;101872.03;;;12.29;100.00
25759;BME280;13604;52.496;13.456;2022-10-17T06:17:23;101885.41;;;12.40;100.00
25759;BME280;13604;52.496;13.456;2022-10-17T06:19:48;101881.47;;;12.49;100.00
25759;BME280;13604;52.496;13.456;2022-10-17T06:22:14;101896.53;;;12.61;100.00
25759;BME280;13604;52.496;13.456;2022-10-17T06:24:39;101895.06;;;12.72;100.00
25759;BME280;13604;52.496;13.456;2022-10-17T06:27:04;101892.72;;;12.84;100.00
25759;BME280;13604;52.496;13.456;2022-10-17T06:29:29;101903.25;;;12.82;100.00
25759;BME280;13604;52.496;13.456;2022-10-17T06:31:55;101895.81;;;12.92;100.00
25759;BME280;13604;52.496;13.456;2022-10-17T06:34:20;101906.41;;;12.89;100.00
25759;BME280;13604;52.496;13.456;2022-10-17T06:36:46;101916.47;;;12.96;100.00
25759;BME280;13604;52.496;13.456;2022-10-17T06:39:11;101910.94;;;13.02;100.00
25759;BME280;13604;52.496;13.456;2022-10-17T06:41:37;101909.91;;;13.22;100.00
25759;BME280;13604;52.496;13.456;2022-10-17T06:44:03;101905.66;;;13.20;100.00
25759;BME280;13604;52.496;13.456;2022-10-17T06:46:35;101911.66;;;13.22;100.00
25759;BME280;13604;52.496;13.456;2022-10-17T06:49:00;101905.69;;;13.35;100.00
25759;BME280;13604;52.496;13.456;2022-10-17T06:51:25;101910.44;;;13.44;100.00
25759;BME280;13604;52.496;13.456;2022-10-17T06:53:51;101912.94;;;13.62;100.00
25759;BME280;13604;52.496;13.456;2022-10-17T06:56:16;101913.56;;;13.67;100.00
25759;BME280;13604;52.496;13.456;2022-10-17T06:58:43;101914.22;;;13.70;100.00
25759;BME280;13604;52.496;13.456;2022-10-17T07:01:11;101907.31;;;13.69;100.00
25759;BME280;13604;52.496;13.456;2022-10-17T07:03:38;101920.47;;;13.83;100.00
25759;BME280;13604;52.496;13.456;2022-10-17T07:06:04;101912.34;;;13.72;100.00
25759;BME280;13604;52.496;13.456;2022-10-17T07:08:29;101909.56;;;13.75;100.00
25759;BME280;13604;52.496;13.456;2022-10-17T07:10:55;101912.53;;;13.85;100.00
25759;BME280;13604;52.496;13.456;2022-10-17T07:13:21;101908.97;;;14.02;100.00
25759;BME280;13604;52.496;13.456;2022-10-17T07:15:46;101918.00;;;14.12;100.00
25759;BME280;13604;52.496;13.456;2022-10-17T07:18:11;101919.88;;;14.40;100.00
25759;BME280;13604;52.496;13.456;2022-10-17T07:20:37;101925.94;;;14.56;100.00
25759;BME280;13604;52.496;13.456;2022-10-17T07:23:03;101929.41;;;14.71;100.00
25759;BME280;13604;52.496;13.456;2022-10-17T07:25:28;101925.78;;;14.87;100.00
25759;BME280;13604;52.496;13.456;2022-10-17T07:27:54;101925.22;;;14.97;100.00
25759;BME280;13604;52.496;13.456;2022-10-17T07:30:19;101927.19;;;15.07;100.00
25759;BME280;13604;52.496;13.456;2022-10-17T07:32:46;101934.88;;;15.10;100.00
25759;BME280;13604;52.496;13.456;2022-10-17T07:35:11;101928.22;;;15.05;100.00
25759;BME280;13604;52.496;13.456;2022-10-17T07:37:37;101932.53;;;15.06;100.00
25759;BME280;13604;52.496;13.456;2022-10-17T07:40:05;101923.44;;;15.11;100.00
25759;BME280;13604;52.496;13.456;2022-10-17T07:42:31;101927.09;;;15.23;100.00
25759;BME280;13604;52.496;13.456;2022-10-17T07:44:56;101924.84;;;15.45;100.00
25759;BME280;13604;52.496;13.456;2022-10-17T07:47:22;101933.78;;;15.70;100.00
25759;BME280;13604;52.496;13.456;2022-10-17T07:49:47;101927.16;;;15.91;100.00
25759;BME280;13604;52.496;13.456;2022-10-17T07:52:13;101928.84;;;16.19;100.00
25759;BME280;13604;52.496;13.456;2022-10-17T07:54:39;101934.28;;;16.43;100.00
25759;BME280;13604;52.496;13.456;2022-10-17T07:57:05;101937.44;;;16.48;100.00
25759;BME280;13604;52.496;13.456;2022-10-17T07:59:35;101933.28;;;16.70;100.00
25759;BME280;13604;52.496;13.456;2022-10-17T08:02:00;101942.34;;;17.04;100.00
25759;BME280;13604;52.496;13.456;2022-10-17T08:04:26;101935.72;;;17.12;100.00
25759;BME280;13604;52.496;13.456;2022-10-17T08:06:52;101936.78;;;17.09;100.00
25759;BME280;13604;52.496;13.456;2022-10-17T08:09:17;101927.66;;;17.38;100.00
25759;BME280;13604;52.496;13.456;2022-10-17T08:11:42;101932.97;;;17.62;100.00
25759;BME280;13604;52.496;13.456;2022-10-17T08:14:09;101926.81;;;17.87;100.00
25759;BME280;13604;52.496;13.456;2022-10-17T08:16:34;101934.09;;;17.83;100.00
25759;BME280;13604;52.496;13.456;2022-10-17T08:19:00;101939.69;;;17.79;100.00
25759;BME280;13604;52.496;13.456;2022-10-17T08:21:25;101930.31;;;17.88;100.00
25759;BME280;13604;52.496;13.456;2022-10-17T08:23:51;101938.69;;;18.16;100.00
25759;BME280;13604;52.496;13.456;2022-10-17T08:26:16;101934.16;;;18.53;100.00
25759;BME280;13604;52.496;13.456;2022-10-17T08:28:44;101920.78;;;18.79;100.00
25759;BME280;13604;52.496;13.456;2022-10-17T08:31:12;101936.06;;;18.98;100.00
25759;BME280;13604;52.496;13.456;2022-10-17T08:33:38;101934.00;;;19.01;100.00
25759;BME280;13604;52.496;13.456;2022-10-17T08:36:04;101931.34;;;18.79;100.00
25759;BME280;13604;52.496;13.456;2022-10-17T08:38:31;101935.09;;;18.99;100.00
25759;BME280;13604;52.496;13.456;2022-10-17T08:40:59;101928.16;;;19.31;100.00
25759;BME280;13604;52.496;13.456;2022-10-17T08:46:04;101926.31;;;20.40;93.31
25759;BME280;13604;52.496;13.456;2022-10-17T08:48:35;101919.72;;;20.55;90.19
25759;BME280;13604;52.496;13.456;2022-10-17T08:51:18;101918.84;;;20.96;87.23
25759;BME280;13604;52.496;13.456;2022-10-17T08:53:52;101913.56;;;21.27;84.90
25759;BME280;13604;52.496;13.456;2022-10-17T08:56:26;101913.25;;;21.89;81.64
25759;BME280;13604;52.496;13.456;2022-10-17T08:58:54;101902.34;;;22.60;76.92
25759;BME280;13604;52.496;13.456;2022-10-17T09:07:23;101910.31;;;24.50;63.42
25759;BME280;13604;52.496;13.456;2022-10-17T09:10:02;101913.94;;;24.41;62.65
25759;BME280;13604;52.496;13.456;2022-10-17T09:12:45;101916.72;;;24.65;61.09
25759;BME280;13604;52.496;13.456;2022-10-17T09:15:39;101924.34;;;24.34;61.64
25759;BME280;13604;52.496;13.456;2022-10-17T09:18:22;101921.56;;;24.61;60.71
25759;BME280;13604;52.496;13.456;2022-10-17T09:20:51;101917.72;;;25.66;57.92
25759;BME280;13604;52.496;13.456;2022-10-17T09:23:31;101918.03;;;25.63;56.06
25759;BME280;13604;52.496;13.456;2022-10-17T09:26:01;101923.94;;;25.91;55.50
25759;BME280;13604;52.496;13.456;2022-10-17T09:28:36;101918.91;;;26.93;52.89
25759;BME280;13604;52.496;13.456;2022-10-17T09:31:04;101924.13;;;26.54;52.75
25759;BME280;13604;52.496;13.456;2022-10-17T09:33:36;101919.38;;;26.89;51.66
25759;BME280;13604;52.496;13.456;2022-10-17T09:41:32;101912.97;;;26.34;51.87
25759;BME280;13604;52.496;13.456;2022-10-17T09:44:11;101908.59;;;25.85;53.14
25759;BME280;13604;52.496;13.456;2022-10-17T09:46:37;101900.09;;;26.54;51.28
25759;BME280;13604;52.496;13.456;2022-10-17T09:49:16;101895.38;;;26.72;50.68
25759;BME280;13604;52.496;13.456;2022-10-17T09:51:43;101899.88;;;26.80;50.07
25759;BME280;13604;52.496;13.456;2022-10-17T09:54:19;101900.66;;;26.97;49.98
25759;BME280;13604;52.496;13.456;2022-10-17T09:56:56;101900.25;;;27.78;47.83
25759;BME280;13604;52.496;13.456;2022-10-17T09:59:34;101901.41;;;28.44;46.04
25759;BME280;13604;52.496;13.456;2022-10-17T10:07:26;101895.72;;;30.20;41.62
25759;BME280;13604;52.496;13.456;2022-10-17T10:09:52;101885.00;;;29.99;41.41
25759;BME280;13604;52.496;13.456;2022-10-17T10:14:44;101880.94;;;30.59;39.24
25759;BME280;13604;52.496;13.456;2022-10-17T10:19:57;101890.09;;;29.73;40.18
25759;BME280;13604;52.496;13.456;2022-10-17T10:22:23;101892.63;;;30.79;39.78
25759;BME280;13604;52.496;13.456;2022-10-17T10:25:14;101896.56;;;30.76;38.58
25759;BME280;13604;52.496;13.456;2022-10-17T10:27:45;101888.06;;;29.75;39.70
25759;BME280;13604;52.496;13.456;2022-10-17T10:30:29;101887.28;;;29.38;41.63
25759;BME280;13604;52.496;13.456;2022-10-17T10:32:57;101889.69;;;28.59;43.30
25759;BME280;13604;52.496;13.456;2022-10-17T10:35:35;101881.63;;;28.45;44.93
25759;BME280;13604;52.496;13.456;2022-10-17T10:38:03;101892.69;;;29.30;43.11
25759;BME280;13604;52.496;13.456;2022-10-17T10:40:36;101885.50;;;30.09;41.02
25759;BME280;13604;52.496;13.456;2022-10-17T10:43:04;101883.19;;;29.42;41.19
25759;BME280;13604;52.496;13.456;2022-10-17T10:48:17;101882.28;;;30.20;39.40
25759;BME280;13604;52.496;13.456;2022-10-17T10:50:51;101881.16;;;31.05;38.09
25759;BME280;13604;52.496;13.456;2022-10-17T10:54:02;101870.78;;;31.63;35.34
25759;BME280;13604;52.496;13.456;2022-10-17T10:56:40;101872.44;;;30.55;37.49
25759;BME280;13604;52.496;13.456;2022-10-17T11:01:45;101877.75;;;28.33;42.13
25759;BME280;13604;52.496;13.456;2022-10-17T11:04:30;101867.78;;;28.85;41.15
25759;BME280;13604;52.496;13.456;2022-10-17T11:07:02;101865.94;;;30.50;39.44
25759;BME280;13604;52.496;13.456;2022-10-17T11:09:35;101864.84;;;31.87;36.01
25759;BME280;13604;52.496;13.456;2022-10-17T11:12:16;101869.44;;;33.73;33.35
25759;BME280;13604;52.496;13.456;2022-10-17T11:14:48;101871.47;;;32.31;34.08
25759;BME280;13604;52.496;13.456;2022-10-17T11:20:05;101852.84;;;33.38;32.37
25759;BME280;13604;52.496;13.456;2022-10-17T11:22:44;101848.75;;;32.84;33.37
25759;BME280;13604;52.496;13.456;2022-10-17T11:27:36;101845.16;;;32.00;34.43
25759;BME280;13604;52.496;13.456;2022-10-17T11:30:02;101841.53;;;31.40;35.15
25759;BME280;13604;52.496;13.456;2022-10-17T11:32:36;101836.94;;;31.27;35.45
25759;BME280;13604;52.496;13.456;2022-10-17T11:35:16;101838.75;;;30.59;37.10
25759;BME280;13604;52.496;13.456;2022-10-17T11:37:54;101847.00;;;31.73;35.79
25759;BME280;13604;52.496;13.456;2022-10-17T11:40:21;101846.19;;;32.12;35.41
25759;BME280;13604;52.496;13.456;2022-10-17T11:42:56;101835.19;;;31.00;36.04
25759;BME280;13604;52.496;13.456;2022-10-17T11:45:26;101839.59;;;30.60;36.40
25759;BME280;13604;52.496;13.456;2022-10-17T11:48:00;101842.25;;;31.01;35.34
25759;BME280;13604;52.496;13.456;2022-10-17T11:50:32;101836.34;;;30.77;36.78
25759;BME280;13604;52.496;13.456;2022-10-17T11:53:02;101831.19;;;31.50;35.20
25759;BME280;13604;52.496;13.456;2022-10-17T11:55:30;101835.59;;;31.71;34.87
25759;BME280;13604;52.496;13.456;2022-10-17T12:00:55;101834.31;;;29.47;38.57
25759;BME280;13604;52.496;13.456;2022-10-17T12:03:31;101829.88;;;29.82;38.09
25759;BME280;13604;52.496;13.456;2022-10-17T12:06:10;101824.56;;;31.39;36.33
25759;BME280;13604;52.496;13.456;2022-10-17T12:08:45;101826.19;;;31.21;35.20
25759;BME280;13604;52.496;13.456;2022-10-17T12:13:59;101841.34;;;29.33;37.88
25759;BME280;13604;52.496;13.456;2022-10-17T12:19:19;101827.41;;;30.36;37.58
25759;BME280;13604;52.496;13.456;2022-10-17T12:21:56;101828.91;;;31.34;35.91
25759;BME280;13604;52.496;13.456;2022-10-17T12:24:32;101826.63;;;31.24;34.99
25759;BME280;13604;52.496;13.456;2022-10-17T12:27:21;101817.13;;;32.47;32.76
25759;BME280;13604;52.496;13.456;2022-10-17T12:29:47;101810.88;;;31.28;34.40
25759;BME280;13604;52.496;13.456;2022-10-17T12:32:14;101824.00;;;32.23;33.21
25759;BME280;13604;52.496;13.456;2022-10-17T12:34:50;101815.28;;;32.92;31.94
25759;BME280;13604;52.496;13.456;2022-10-17T12:40:46;101806.44;;;34.95;28.87
25759;BME280;13604;52.496;13.456;2022-10-17T12:45:50;101800.03;;;33.11;32.00
25759;BME280;13604;52.496;13.456;2022-10-17T12:51:17;101807.84;;;33.25;31.00
25759;BME280;13604;52.496;13.456;2022-10-17T12:53:53;101803.53;;;32.80;31.21
25759;BME280;13604;52.496;13.456;2022-10-17T12:56:36;101809.75;;;32.80;31.42
25759;BME280;13604;52.496;13.456;2022-10-17T12:59:08;101808.53;;;34.02;30.11
25759;BME280;13604;52.496;13.456;2022-10-17T13:01:38;101802.84;;;34.47;30.17
25759;BME280;13604;52.496;13.456;2022-10-17T13:04:08;101796.06;;;33.76;30.03
25759;BME280;13604;52.496;13.456;2022-10-17T13:06:38;101788.59;;;33.78;29.74
25759;BME280;13604;52.496;13.456;2022-10-17T13:09:16;101805.56;;;31.87;32.44
25759;BME280;13604;52.496;13.456;2022-10-17T13:11:42;101791.25;;;30.04;36.22
25759;BME280;13604;52.496;13.456;2022-10-17T13:14:11;101787.06;;;29.52;37.64
25759;BME280;13604;52.496;13.456;2022-10-17T13:16:39;101781.56;;;29.39;37.86
25759;BME280;13604;52.496;13.456;2022-10-17T13:19:16;101793.63;;;30.27;36.74
25759;BME280;13604;52.496;13.456;2022-10-17T13:21:53;101792.88;;;29.84;37.20
25759;BME280;13604;52.496;13.456;2022-10-17T13:24:35;101796.47;;;29.91;37.30
25759;BME280;13604;52.496;13.456;2022-10-17T13:27:02;101798.50;;;29.40;38.08
25759;BME280;13604;52.496;13.456;2022-10-17T13:29:28;101791.94;;;29.27;38.49
25759;BME280;13604;52.496;13.456;2022-10-17T13:31:58;101805.00;;;30.22;36.94
25759;BME280;13604;52.496;13.456;2022-10-17T13:34:26;101792.03;;;28.98;39.23
25759;BME280;13604;52.496;13.456;2022-10-17T13:36:54;101808.28;;;27.94;42.15
25759;BME280;13604;52.496;13.456;2022-10-17T13:39:23;101793.72;;;27.73;43.10
25759;BME280;13604;52.496;13.456;2022-10-17T13:41:51;101798.91;;;28.56;40.86
25759;BME280;13604;52.496;13.456;2022-10-17T13:44:20;101781.19;;;29.27;39.03
25759;BME280;13604;52.496;13.456;2022-10-17T13:46:47;101788.81;;;29.03;39.33
25759;BME280;13604;52.496;13.456;2022-10-17T13:49:21;101783.28;;;28.89;40.72
25759;BME280;13604;52.496;13.456;2022-10-17T13:51:49;101789.91;;;29.29;38.78
25759;BME280;13604;52.496;13.456;2022-10-17T13:54:31;101791.00;;;31.29;35.36
25759;BME280;13604;52.496;13.456;2022-10-17T13:56:58;101790.41;;;31.46;34.48